createdAt,value
2019-03-29T00:02:44.812Z,19.90
2019-03-29T00:06:49.345Z,19.80
2019-03-29T00:10:53.922Z,19.80
2019-03-29T00:14:58.447Z,19.80
2019-03-29T00:19:03.050Z,19.80
2019-03-29T00:23:07.552Z,19.80
2019-03-29T00:27:12.088Z,19.70
2019-03-29T00:31:17.419Z,19.70
2019-03-29T00:35:22.202Z,19.70
2019-03-29T00:39:26.736Z,19.70
2019-03-29T00:43:31.266Z,19.60
2019-03-29T00:47:35.792Z,19.60
2019-03-29T00:51:40.321Z,19.60
2019-03-29T00:55:44.866Z,19.50
2019-03-29T00:59:49.400Z,19.50
2019-03-29T01:03:53.917Z,19.50
2019-03-29T01:08:07.543Z,19.60
2019-03-29T01:12:03.901Z,19.60
2019-03-29T01:16:08.365Z,19.60
2019-03-29T01:20:13.434Z,19.70
2019-03-29T01:24:17.968Z,19.70
2019-03-29T01:28:22.490Z,19.80
2019-03-29T01:32:27.030Z,19.80
2019-03-29T01:36:31.557Z,19.80
2019-03-29T01:40:36.089Z,19.80
2019-03-29T01:44:40.613Z,19.80
2019-03-29T01:48:45.137Z,19.90
2019-03-29T01:52:49.669Z,19.80
2019-03-29T01:56:54.205Z,19.80
2019-03-29T02:00:58.738Z,19.80
2019-03-29T02:05:05.107Z,19.80
2019-03-29T02:09:09.634Z,19.80
2019-03-29T02:13:14.181Z,19.80
2019-03-29T02:17:18.705Z,19.80
2019-03-29T02:21:24.713Z,19.70
2019-03-29T02:25:29.582Z,19.70
2019-03-29T02:29:34.463Z,19.70
2019-03-29T02:33:38.980Z,19.60
2019-03-29T02:37:43.539Z,19.60
2019-03-29T02:41:48.078Z,19.60
2019-03-29T02:45:52.606Z,19.60
2019-03-29T02:49:57.146Z,19.60
2019-03-29T02:54:01.666Z,19.50
2019-03-29T02:58:06.203Z,19.50
2019-03-29T03:02:10.725Z,19.40
2019-03-29T03:06:15.406Z,19.40
2019-03-29T03:10:20.395Z,19.40
2019-03-29T03:14:24.919Z,19.40
2019-03-29T03:18:29.450Z,19.30
2019-03-29T03:22:33.979Z,19.30
2019-03-29T03:26:38.534Z,19.30
2019-03-29T03:30:43.140Z,19.20
2019-03-29T03:34:47.670Z,19.20
2019-03-29T03:38:52.194Z,19.10
2019-03-29T03:42:56.719Z,19.10
2019-03-29T03:47:01.245Z,19.10
2019-03-29T03:51:05.775Z,19.00
2019-03-29T03:55:11.552Z,19.00
2019-03-29T03:59:16.406Z,19.00
2019-03-29T04:03:21.471Z,19.00
2019-03-29T04:07:25.999Z,18.90
2019-03-29T04:11:30.530Z,19.00
2019-03-29T04:15:35.103Z,18.90
2019-03-29T04:19:39.615Z,18.90
2019-03-29T04:23:44.142Z,18.90
2019-03-29T04:27:48.677Z,18.80
2019-03-29T04:31:53.207Z,18.80
2019-03-29T04:35:57.738Z,18.80
2019-03-29T04:40:08.046Z,18.70
2019-03-29T04:44:07.903Z,18.70
2019-03-29T04:48:13.116Z,18.70
2019-03-29T04:52:17.651Z,18.70
2019-03-29T04:56:22.185Z,18.60
2019-03-29T05:00:26.720Z,18.60
2019-03-29T05:04:31.235Z,18.60
2019-03-29T05:08:35.894Z,18.60
2019-03-29T05:12:40.424Z,18.50
2019-03-29T05:16:45.167Z,18.50
2019-03-29T05:20:49.701Z,18.50
2019-03-29T05:24:54.226Z,18.60
2019-03-29T05:28:58.753Z,18.60
2019-03-29T05:33:03.293Z,18.60
2019-03-29T05:37:07.835Z,18.70
2019-03-29T05:41:12.379Z,18.70
2019-03-29T05:45:16.903Z,18.80
2019-03-29T05:49:21.437Z,18.80
2019-03-29T05:53:26.278Z,18.90
2019-03-29T05:57:30.809Z,19.00
2019-03-29T06:01:35.338Z,19.00
2019-03-29T06:05:39.866Z,19.10
2019-03-29T06:09:44.392Z,19.20
2019-03-29T06:13:48.909Z,19.30
2019-03-29T06:17:53.443Z,19.30
2019-03-29T06:21:57.974Z,19.30
2019-03-29T06:26:02.515Z,19.30
2019-03-29T06:30:07.923Z,19.40
2019-03-29T06:34:12.475Z,19.40
2019-03-29T06:38:17.859Z,19.30
2019-03-29T06:42:22.394Z,19.40
2019-03-29T06:46:26.921Z,19.50
2019-03-29T06:50:31.509Z,19.60
2019-03-29T06:54:36.322Z,19.60
2019-03-29T06:58:41.023Z,19.70
2019-03-29T07:02:45.812Z,19.70
2019-03-29T07:06:50.346Z,19.80
2019-03-29T07:10:54.877Z,19.80
2019-03-29T07:14:59.402Z,19.80
2019-03-29T07:19:05.098Z,19.90
2019-03-29T07:23:10.121Z,19.90
2019-03-29T07:27:14.662Z,19.90
2019-03-29T07:31:19.381Z,20.00
2019-03-29T07:35:23.898Z,20.00
2019-03-29T07:39:28.462Z,20.00
2019-03-29T07:43:32.997Z,20.00
2019-03-29T07:47:37.770Z,20.00
2019-03-29T07:51:42.302Z,20.10
2019-03-29T07:55:46.833Z,20.10
2019-03-29T07:59:51.365Z,20.10
2019-03-29T08:03:55.903Z,20.20
2019-03-29T08:08:00.436Z,20.20
2019-03-29T08:12:04.967Z,20.20
2019-03-29T08:16:09.494Z,20.20
2019-03-29T08:20:38.816Z,20.20
2019-03-29T08:24:19.542Z,20.20
2019-03-29T08:28:23.996Z,20.20
2019-03-29T08:32:28.526Z,20.20
2019-03-29T08:36:33.060Z,20.20
2019-03-29T08:40:37.585Z,20.20
2019-03-29T08:44:42.393Z,20.30
2019-03-29T08:48:47.305Z,20.20
2019-03-29T08:52:52.451Z,20.30
2019-03-29T08:56:56.970Z,20.30
2019-03-29T09:01:01.490Z,20.30
2019-03-29T09:05:06.193Z,20.30
2019-03-29T09:09:12.143Z,20.30
2019-03-29T09:13:17.104Z,20.30
2019-03-29T09:17:21.633Z,20.30
2019-03-29T09:21:26.921Z,20.30
2019-03-29T09:25:31.545Z,20.30
2019-03-29T09:29:36.077Z,20.30
2019-03-29T09:33:40.617Z,20.30
2019-03-29T09:37:45.159Z,20.40
2019-03-29T09:41:49.698Z,20.30
2019-03-29T09:45:54.218Z,20.30
2019-03-29T09:49:58.753Z,20.30
2019-03-29T09:54:03.302Z,20.40
2019-03-29T09:58:07.833Z,20.40
2019-03-29T10:02:12.391Z,20.50
2019-03-29T10:06:17.098Z,20.50
2019-03-29T10:10:21.633Z,20.50
2019-03-29T10:14:26.167Z,20.50
2019-03-29T10:18:30.685Z,20.60
2019-03-29T10:22:35.221Z,20.60
2019-03-29T10:26:39.818Z,20.60
2019-03-29T10:30:46.503Z,20.50
2019-03-29T10:34:50.820Z,20.50
2019-03-29T10:38:55.334Z,20.50
2019-03-29T10:42:59.874Z,20.40
2019-03-29T10:47:04.559Z,20.40
2019-03-29T10:51:09.136Z,20.40
2019-03-29T10:55:13.691Z,20.40
2019-03-29T10:59:27.146Z,20.30
2019-03-29T11:03:23.694Z,20.30
2019-03-29T11:07:28.146Z,20.30
2019-03-29T11:11:32.666Z,20.30
2019-03-29T11:15:37.522Z,20.20
2019-03-29T11:19:42.063Z,20.20
2019-03-29T11:23:46.598Z,20.20
2019-03-29T11:27:51.135Z,20.20
2019-03-29T11:31:55.651Z,20.20
2019-03-29T11:36:00.194Z,20.20
2019-03-29T11:40:06.537Z,20.10
2019-03-29T11:44:11.077Z,20.10
2019-03-29T11:48:15.661Z,20.10
2019-03-29T11:52:20.185Z,20.10
2019-03-29T11:56:24.712Z,20.10
2019-03-29T12:00:38.771Z,20.10
2019-03-29T12:04:43.306Z,20.10
2019-03-29T12:08:47.839Z,20.10
2019-03-29T12:12:52.374Z,20.10
2019-03-29T12:16:56.961Z,20.10
2019-03-29T12:21:01.493Z,20.00
2019-03-29T12:25:07.069Z,20.00
2019-03-29T12:29:11.908Z,20.00
2019-03-29T12:33:16.542Z,20.00
2019-03-29T12:37:21.066Z,20.00
2019-03-29T12:41:25.601Z,20.00
2019-03-29T12:45:30.189Z,19.90
2019-03-29T12:49:34.727Z,19.90
2019-03-29T12:53:39.248Z,19.90
2019-03-29T12:57:43.786Z,19.90
2019-03-29T13:01:48.385Z,19.90
2019-03-29T13:05:52.923Z,19.90
2019-03-29T13:09:57.458Z,19.90
2019-03-29T13:14:10.196Z,19.90
2019-03-29T13:18:07.432Z,19.90
2019-03-29T13:22:11.941Z,19.90
2019-03-29T13:26:16.597Z,19.90
2019-03-29T13:30:21.595Z,19.80
2019-03-29T13:34:26.129Z,19.80
2019-03-29T13:38:30.668Z,19.80
2019-03-29T13:42:35.190Z,19.80
2019-03-29T13:46:39.713Z,19.80
2019-03-29T13:50:44.256Z,19.80
2019-03-29T13:54:48.926Z,19.80
2019-03-29T13:58:53.458Z,19.80
2019-03-29T14:02:57.993Z,19.80
2019-03-29T14:07:02.519Z,19.70
2019-03-29T14:11:07.047Z,19.70
2019-03-29T14:15:13.377Z,19.70
2019-03-29T14:19:17.914Z,19.70
2019-03-29T14:23:22.454Z,19.70
2019-03-29T14:27:26.970Z,19.60
2019-03-29T14:31:31.507Z,19.60
2019-03-29T14:35:36.037Z,19.60
2019-03-29T14:39:40.573Z,19.60
2019-03-29T14:43:45.100Z,19.60
2019-03-29T14:47:49.634Z,19.60
2019-03-29T14:51:54.169Z,19.60
2019-03-29T14:55:58.706Z,19.60
2019-03-29T15:00:04.849Z,19.60
2019-03-29T15:04:09.390Z,19.50
2019-03-29T15:08:13.986Z,19.50
2019-03-29T15:12:18.530Z,19.50
2019-03-29T15:16:23.050Z,19.50
2019-03-29T15:20:27.578Z,19.50
2019-03-29T15:24:32.353Z,19.50
2019-03-29T15:28:37.657Z,19.50
2019-03-29T15:32:42.269Z,19.40
2019-03-29T15:36:46.864Z,19.40
2019-03-29T15:40:51.397Z,19.40
2019-03-29T15:44:55.930Z,19.40
2019-03-29T15:49:00.446Z,19.40
2019-03-29T15:53:05.034Z,19.40
2019-03-29T15:57:09.566Z,19.40
2019-03-29T16:01:14.089Z,19.30
2019-03-29T16:05:18.626Z,19.30
2019-03-29T16:09:23.150Z,19.30
2019-03-29T16:13:27.670Z,19.30
2019-03-29T16:17:32.206Z,19.30
2019-03-29T16:21:36.729Z,19.20
2019-03-29T16:25:41.257Z,19.30
2019-03-29T16:29:45.779Z,19.20
2019-03-29T16:33:50.309Z,19.20
2019-03-29T16:37:57.387Z,19.20
2019-03-29T16:42:00.296Z,19.20
2019-03-29T16:46:04.751Z,19.20
2019-03-29T16:50:09.817Z,19.20
2019-03-29T16:54:14.353Z,19.10
2019-03-29T16:58:18.875Z,19.10
2019-03-29T17:02:23.409Z,19.10
2019-03-29T17:06:27.941Z,19.10
2019-03-29T17:10:32.472Z,19.10
2019-03-29T17:14:37.005Z,19.10
2019-03-29T17:18:41.533Z,19.00
2019-03-29T17:22:46.066Z,19.00
2019-03-29T17:26:50.600Z,19.00
2019-03-29T17:30:56.773Z,19.00
2019-03-29T17:35:01.573Z,19.00
2019-03-29T17:39:06.851Z,19.00
2019-03-29T17:43:11.631Z,18.90
2019-03-29T17:47:16.432Z,18.90
2019-03-29T17:51:20.949Z,18.90
2019-03-29T17:55:25.477Z,18.90
2019-03-29T17:59:30.026Z,18.90
2019-03-29T18:03:34.553Z,18.90
2019-03-29T18:07:39.100Z,18.80
2019-03-29T18:11:43.644Z,18.80
2019-03-29T18:15:48.187Z,18.80
2019-03-29T18:19:52.721Z,18.80
2019-03-29T18:23:57.246Z,18.80
2019-03-29T18:28:01.774Z,18.80
2019-03-29T18:32:06.303Z,18.80
2019-03-29T18:36:10.900Z,18.80
2019-03-29T18:40:21.294Z,18.80
2019-03-29T18:44:26.610Z,18.80
2019-03-29T18:48:31.133Z,18.80
2019-03-29T18:52:35.662Z,18.80
2019-03-29T18:56:40.194Z,18.80
2019-03-29T19:00:44.725Z,18.80
2019-03-29T19:04:49.264Z,18.70
2019-03-29T19:08:53.789Z,18.70
2019-03-29T19:12:58.695Z,18.70
2019-03-29T19:17:04.000Z,18.70
2019-03-29T19:21:08.538Z,18.70
2019-03-29T19:25:13.069Z,18.70
2019-03-29T19:29:17.586Z,18.70
2019-03-29T19:33:22.113Z,18.70
2019-03-29T19:37:26.647Z,18.70
2019-03-29T19:41:31.178Z,18.70
2019-03-29T19:45:35.714Z,18.70
2019-03-29T19:49:40.238Z,18.70
2019-03-29T19:53:44.787Z,18.70
2019-03-29T19:57:49.366Z,18.70
2019-03-29T20:01:53.974Z,18.70
2019-03-29T20:05:58.533Z,18.70
2019-03-29T20:10:04.230Z,18.70
2019-03-29T20:14:09.022Z,18.70
2019-03-29T20:18:13.558Z,18.70
2019-03-29T20:22:18.105Z,18.70
2019-03-29T20:26:22.639Z,18.70
2019-03-29T20:30:27.442Z,18.70
2019-03-29T20:34:32.319Z,18.70
2019-03-29T20:38:36.848Z,18.70
2019-03-29T20:42:41.385Z,18.70
2019-03-29T20:46:45.918Z,18.70
2019-03-29T20:50:50.444Z,18.70
2019-03-29T20:54:56.633Z,18.70
2019-03-29T20:59:01.157Z,18.70
2019-03-29T21:03:05.687Z,18.80
2019-03-29T21:07:11.985Z,18.70
2019-03-29T21:11:16.522Z,18.80
2019-03-29T21:15:21.037Z,18.80
2019-03-29T21:19:25.570Z,18.80
2019-03-29T21:23:30.225Z,18.80
2019-03-29T21:27:34.768Z,18.80
2019-03-29T21:31:39.311Z,18.80
2019-03-29T21:35:43.838Z,18.80
2019-03-29T21:39:48.538Z,18.80
2019-03-29T21:43:53.078Z,18.80
2019-03-29T21:48:09.884Z,18.80
2019-03-29T21:52:03.219Z,18.80
2019-03-29T21:56:07.833Z,18.90
2019-03-29T22:00:14.238Z,18.90
2019-03-29T22:04:18.778Z,18.90
2019-03-29T22:08:23.313Z,18.90
2019-03-29T22:12:27.840Z,18.90
2019-03-29T22:16:32.357Z,19.00
2019-03-29T22:20:36.890Z,19.00
2019-03-29T22:24:41.425Z,19.00
2019-03-29T22:28:46.081Z,19.00
2019-03-29T22:32:50.625Z,19.00
2019-03-29T22:36:55.155Z,19.10
2019-03-29T22:40:59.680Z,19.10
2019-03-29T22:45:06.449Z,19.10
2019-03-29T22:49:10.982Z,19.10
2019-03-29T22:53:15.601Z,19.10
2019-03-29T22:57:20.126Z,19.10
2019-03-29T23:01:25.388Z,19.10
2019-03-29T23:05:30.189Z,19.10
2019-03-29T23:09:34.792Z,19.00
2019-03-29T23:13:39.322Z,19.00
2019-03-29T23:17:43.848Z,19.00
2019-03-29T23:21:48.383Z,19.00
2019-03-29T23:25:52.936Z,19.00
2019-03-29T23:29:57.474Z,18.90
2019-03-29T23:34:02.001Z,18.90
2019-03-29T23:38:06.546Z,18.90
2019-03-29T23:42:11.062Z,18.90
2019-03-29T23:46:15.601Z,18.80
2019-03-29T23:50:20.274Z,18.80
2019-03-29T23:54:24.814Z,18.80
2019-03-29T23:58:29.334Z,18.80
